createdAt,value
2022-09-23T00:00:20.825Z,3.13
2022-09-23T00:05:22.836Z,1.87
2022-09-23T00:10:27.901Z,2.00
2022-09-23T00:15:29.859Z,5.10
2022-09-23T00:20:33.851Z,2.93
2022-09-23T00:25:37.308Z,2.03
2022-09-23T00:30:41.490Z,2.10
2022-09-23T00:35:43.455Z,2.23
2022-09-23T00:40:47.178Z,1.73
2022-09-23T00:45:51.292Z,3.13
2022-09-23T00:50:55.260Z,1.43
2022-09-23T00:56:02.660Z,2.50
2022-09-23T01:01:05.169Z,1.20
2022-09-23T01:06:07.948Z,3.07
2022-09-23T01:11:36.597Z,2.10
2022-09-23T01:16:44.859Z,1.83
2022-09-23T01:21:55.038Z,2.13
2022-09-23T01:27:10.420Z,1.93
2022-09-23T01:32:20.236Z,1.30
2022-09-23T01:37:31.057Z,1.37
2022-09-23T01:42:37.859Z,1.90
2022-09-23T01:47:46.741Z,1.50
2022-09-23T01:52:49.711Z,2.10
2022-09-23T01:57:57.626Z,2.70
2022-09-23T02:03:06.801Z,1.27
2022-09-23T02:08:13.664Z,1.40
2022-09-23T02:13:19.616Z,2.17
2022-09-23T02:18:25.699Z,1.07
2022-09-23T02:23:33.282Z,2.13
2022-09-23T02:28:46.614Z,1.87
2022-09-23T02:33:55.880Z,2.73
2022-09-23T02:39:02.457Z,2.63
2022-09-23T02:44:07.916Z,1.87
2022-09-23T02:49:16.847Z,1.90
2022-09-23T02:54:20.500Z,3.03
2022-09-23T02:59:23.517Z,3.60
2022-09-23T03:04:33.366Z,3.83
2022-09-23T03:09:41.312Z,2.60
2022-09-23T03:14:53.074Z,1.57
2022-09-23T03:20:02.109Z,2.23
2022-09-23T03:25:08.385Z,2.23
2022-09-23T03:30:11.941Z,2.17
2022-09-23T03:35:15.089Z,2.30
2022-09-23T03:40:21.091Z,2.27
2022-09-23T03:45:27.364Z,4.77
2022-09-23T03:50:31.022Z,2.77
2022-09-23T03:55:32.853Z,2.77
2022-09-23T04:00:34.960Z,2.47
2022-09-23T04:05:38.414Z,3.03
2022-09-23T04:10:41.524Z,2.80
2022-09-23T04:15:43.507Z,2.97
2022-09-23T04:20:46.544Z,2.20
2022-09-23T04:25:48.826Z,2.90
2022-09-23T04:30:51.895Z,5.73
2022-09-23T04:35:56.185Z,3.97
2022-09-23T04:40:57.886Z,4.23
2022-09-23T04:46:00.721Z,2.80
2022-09-23T04:51:05.139Z,7.10
2022-09-23T04:56:09.252Z,4.20
2022-09-23T05:01:15.495Z,4.70
2022-09-23T05:06:19.616Z,4.37
2022-09-23T05:11:22.763Z,4.87
2022-09-23T05:16:25.307Z,2.43
2022-09-23T05:21:28.380Z,3.13
2022-09-23T05:26:31.883Z,4.43
2022-09-23T05:31:33.669Z,3.60
2022-09-23T05:36:38.963Z,4.23
2022-09-23T05:41:40.993Z,4.37
2022-09-23T05:46:43.024Z,3.73
2022-09-23T05:51:46.353Z,3.90
2022-09-23T05:56:48.056Z,3.97
2022-09-23T06:01:52.138Z,5.80
2022-09-23T06:07:02.917Z,3.70
2022-09-23T06:12:06.224Z,4.03
2022-09-23T06:17:08.409Z,4.33
2022-09-23T06:22:11.718Z,5.67
2022-09-23T06:27:13.758Z,3.87
2022-09-23T06:32:15.722Z,4.40
2022-09-23T06:37:20.719Z,3.37
2022-09-23T06:42:23.650Z,4.10
2022-09-23T06:47:25.898Z,5.23
2022-09-23T06:52:29.308Z,5.87
2022-09-23T06:57:31.720Z,5.93
2022-09-23T07:02:33.988Z,9.43
2022-09-23T07:07:37.692Z,8.47
2022-09-23T07:12:39.820Z,10.63
2022-09-23T07:17:42.296Z,8.73
2022-09-23T07:22:49.931Z,9.13
2022-09-23T07:27:52.222Z,8.70
2022-09-23T07:32:54.533Z,9.87
2022-09-23T07:37:57.713Z,12.33
2022-09-23T07:42:59.765Z,8.63
2022-09-23T07:48:02.250Z,8.30
2022-09-23T07:53:05.974Z,10.57
2022-09-23T07:58:07.943Z,7.73
2022-09-23T08:03:12.894Z,10.60
2022-09-23T08:08:16.469Z,7.10
2022-09-23T08:13:18.707Z,8.03
2022-09-23T08:18:21.847Z,6.40
2022-09-23T08:23:25.083Z,5.37
2022-09-23T08:28:28.270Z,8.57
2022-09-23T08:33:30.448Z,5.83
2022-09-23T08:38:33.931Z,4.27
2022-09-23T08:43:37.139Z,4.17
2022-09-23T08:48:44.371Z,6.20
2022-09-23T08:53:47.747Z,3.70
2022-09-23T08:59:00.325Z,4.57
2022-09-23T09:04:03.840Z,3.57
2022-09-23T09:09:18.602Z,5.37
2022-09-23T09:14:26.024Z,2.77
2022-09-23T09:19:47.001Z,2.63
2022-09-23T09:24:51.322Z,3.00
2022-09-23T09:29:54.351Z,4.67
2022-09-23T09:35:01.127Z,2.27
2022-09-23T09:40:05.181Z,1.83
2022-09-23T09:45:15.043Z,2.60
2022-09-23T09:50:19.085Z,1.88
2022-09-23T09:55:28.223Z,2.05
2022-09-23T10:00:42.157Z,1.40
2022-09-23T10:05:49.557Z,1.10
2022-09-23T10:11:01.128Z,1.58
2022-09-23T10:16:06.771Z,0.47
2022-09-23T10:21:11.163Z,1.08
2022-09-23T10:26:15.659Z,0.73
2022-09-23T10:31:23.988Z,2.45
2022-09-23T10:36:27.123Z,1.42
2022-09-23T10:41:34.374Z,1.60
2022-09-23T10:46:38.888Z,0.93
2022-09-23T10:51:49.923Z,1.55
2022-09-23T10:56:59.877Z,1.83
2022-09-23T11:02:21.940Z,1.37
2022-09-23T11:07:36.341Z,1.67
2022-09-23T11:12:49.586Z,1.88
2022-09-23T11:18:15.247Z,0.82
2022-09-23T11:23:55.006Z,1.03
2022-09-23T11:29:14.281Z,1.03
2022-09-23T11:34:41.947Z,1.00
2022-09-23T11:39:49.203Z,3.70
2022-09-23T11:44:57.668Z,1.90
2022-09-23T11:50:05.005Z,0.60
2022-09-23T11:55:22.363Z,1.27
2022-09-23T12:00:31.195Z,1.63
2022-09-23T12:05:36.483Z,1.03
2022-09-23T12:10:46.101Z,1.30
2022-09-23T12:16:32.425Z,0.97
2022-09-23T12:21:55.535Z,0.80
2022-09-23T12:27:00.427Z,0.70
2022-09-23T12:32:04.478Z,0.87
2022-09-23T12:37:06.183Z,0.50
2022-09-23T12:42:15.668Z,1.00
2022-09-23T12:47:38.010Z,1.00
2022-09-23T12:52:40.003Z,0.70
2022-09-23T12:57:41.952Z,1.47
2022-09-23T13:02:55.732Z,1.53
2022-09-23T13:08:02.356Z,1.13
2022-09-23T13:13:06.748Z,0.70
2022-09-23T13:18:56.795Z,3.33
2022-09-23T13:24:34.467Z,1.07
2022-09-23T13:29:39.876Z,1.23
2022-09-23T13:34:44.270Z,0.93
2022-09-23T13:39:47.953Z,0.87
2022-09-23T13:44:49.561Z,0.73
2022-09-23T13:49:51.395Z,0.93
2022-09-23T13:54:54.832Z,0.57
2022-09-23T14:00:01.129Z,1.30
2022-09-23T14:05:11.317Z,2.20
2022-09-23T14:10:21.126Z,2.30
2022-09-23T14:15:23.620Z,1.97
2022-09-23T14:20:25.724Z,3.20
2022-09-23T14:25:28.920Z,0.67
2022-09-23T14:30:31.451Z,1.83
2022-09-23T14:35:41.634Z,1.03
2022-09-23T14:40:53.482Z,2.27
2022-09-23T14:45:57.200Z,2.00
2022-09-23T14:51:01.566Z,0.57
2022-09-23T14:56:21.897Z,0.93
2022-09-23T15:01:35.975Z,0.67
2022-09-23T15:06:40.918Z,1.57
2022-09-23T15:11:44.345Z,0.80
2022-09-23T15:16:46.989Z,1.57
2022-09-23T15:21:52.784Z,1.17
2022-09-23T15:26:57.563Z,0.70
2022-09-23T15:31:59.655Z,1.23
2022-09-23T15:37:01.467Z,0.70
2022-09-23T15:42:05.101Z,1.10
2022-09-23T15:47:15.472Z,0.80
2022-09-23T15:52:17.100Z,2.77
2022-09-23T15:57:20.556Z,0.70
2022-09-23T16:02:23.874Z,3.10
2022-09-23T16:07:25.825Z,1.50
2022-09-23T16:12:29.232Z,1.53
2022-09-23T16:17:30.943Z,1.57
2022-09-23T16:22:33.073Z,1.93
2022-09-23T16:27:36.414Z,1.07
2022-09-23T16:32:38.594Z,0.60
2022-09-23T16:37:40.283Z,0.70
2022-09-23T16:42:43.287Z,1.10
2022-09-23T16:47:46.228Z,1.00
2022-09-23T16:52:51.517Z,2.20
2022-09-23T16:57:55.706Z,2.10
2022-09-23T17:02:58.149Z,1.63
2022-09-23T17:08:00.521Z,0.70
2022-09-23T17:13:03.898Z,1.67
2022-09-23T17:18:05.846Z,2.07
2022-09-23T17:23:08.083Z,1.57
2022-09-23T17:28:11.353Z,0.70
2022-09-23T17:33:13.400Z,1.10
2022-09-23T17:38:15.379Z,1.57
2022-09-23T17:43:19.437Z,2.67
2022-09-23T17:48:22.186Z,0.97
2022-09-23T17:53:24.671Z,1.97
2022-09-23T17:58:29.906Z,1.93
2022-09-23T18:03:32.465Z,2.13
2022-09-23T18:08:35.009Z,1.40
2022-09-23T18:13:39.110Z,1.50
2022-09-23T18:18:41.050Z,1.97
2022-09-23T18:23:43.257Z,1.33
2022-09-23T18:28:46.488Z,2.00
2022-09-23T18:33:52.199Z,1.90
2022-09-23T18:38:54.399Z,2.27
2022-09-23T18:43:57.769Z,3.97
2022-09-23T18:48:59.680Z,2.20
2022-09-23T18:54:03.624Z,3.43
2022-09-23T18:59:07.825Z,2.53
2022-09-23T19:04:09.946Z,2.97
2022-09-23T19:09:12.684Z,1.67
2022-09-23T19:14:16.144Z,2.47
2022-09-23T19:19:17.858Z,4.43
2022-09-23T19:24:20.384Z,3.17
2022-09-23T19:29:23.559Z,2.30
2022-09-23T19:34:25.612Z,2.83
2022-09-23T19:39:28.508Z,3.80
2022-09-23T19:44:31.563Z,4.70
2022-09-23T19:49:33.410Z,5.50
2022-09-23T19:54:35.245Z,4.27
2022-09-23T19:59:38.953Z,3.70
2022-09-23T20:04:40.932Z,4.73
2022-09-23T20:09:42.788Z,4.37
2022-09-23T20:14:47.973Z,3.57
2022-09-23T20:19:49.996Z,3.50
2022-09-23T20:24:52.001Z,3.23
2022-09-23T20:29:55.285Z,3.50
2022-09-23T20:34:57.710Z,2.33
2022-09-23T20:39:59.739Z,2.70
2022-09-23T20:45:03.361Z,2.60
2022-09-23T20:50:06.046Z,2.37
2022-09-23T20:55:08.690Z,3.23
2022-09-23T21:00:13.723Z,2.57
2022-09-23T21:05:15.605Z,3.63
2022-09-23T21:10:17.853Z,2.53
2022-09-23T21:15:21.829Z,3.33
2022-09-23T21:20:23.663Z,3.70
2022-09-23T21:25:28.391Z,2.43
2022-09-23T21:30:32.164Z,5.13
2022-09-23T21:35:34.005Z,2.50
2022-09-23T21:40:35.982Z,2.87
2022-09-23T21:45:39.427Z,2.57
2022-09-23T21:50:41.497Z,2.83
2022-09-23T21:55:43.373Z,4.17
2022-09-23T22:00:46.426Z,2.53
2022-09-23T22:05:48.127Z,2.53
2022-09-23T22:10:50.346Z,4.13
2022-09-23T22:15:53.391Z,3.43
2022-09-23T22:20:55.883Z,5.57
2022-09-23T22:26:02.972Z,3.17
2022-09-23T22:31:08.208Z,4.20
2022-09-23T22:36:09.832Z,3.80
2022-09-23T22:41:12.443Z,2.90
2022-09-23T22:46:15.473Z,2.83
2022-09-23T22:51:17.565Z,2.87
2022-09-23T22:56:20.225Z,3.10
2022-09-23T23:01:23.638Z,6.13
2022-09-23T23:06:25.744Z,4.00
2022-09-23T23:11:28.469Z,2.87
2022-09-23T23:16:32.108Z,5.50
2022-09-23T23:21:34.482Z,5.07
2022-09-23T23:26:36.756Z,3.00
2022-09-23T23:31:40.593Z,3.03
2022-09-23T23:36:43.949Z,2.80
2022-09-23T23:41:46.002Z,2.97
2022-09-23T23:46:49.538Z,3.83
2022-09-23T23:51:51.311Z,3.10
2022-09-23T23:56:53.253Z,4.00
